sensor_id;sensor_type;location;lat;lon;timestamp;P1;durP1;ratioP1;P2;durP2;ratioP2
56122;SDS011;42426;46.104;19.656;2023-08-30T00:00:34;6.57;;;4.65;;
56122;SDS011;42426;46.104;19.656;2023-08-30T00:03:00;7.45;;;4.60;;
56122;SDS011;42426;46.104;19.656;2023-08-30T00:05:26;8.25;;;4.53;;
56122;SDS011;42426;46.104;19.656;2023-08-30T00:07:55;7.07;;;4.30;;
56122;SDS011;42426;46.104;19.656;2023-08-30T00:10:21;5.57;;;4.22;;
56122;SDS011;42426;46.104;19.656;2023-08-30T00:12:48;8.23;;;5.20;;
56122;SDS011;42426;46.104;19.656;2023-08-30T00:15:14;5.88;;;4.68;;
56122;SDS011;42426;46.104;19.656;2023-08-30T00:17:40;5.75;;;4.47;;
56122;SDS011;42426;46.104;19.656;2023-08-30T00:20:06;4.53;;;4.07;;
56122;SDS011;42426;46.104;19.656;2023-08-30T00:22:34;4.47;;;4.07;;
56122;SDS011;42426;46.104;19.656;2023-08-30T00:25:00;8.45;;;4.32;;
56122;SDS011;42426;46.104;19.656;2023-08-30T00:27:27;6.18;;;4.57;;
56122;SDS011;42426;46.104;19.656;2023-08-30T00:29:53;5.97;;;4.22;;
56122;SDS011;42426;46.104;19.656;2023-08-30T00:32:19;7.15;;;4.85;;
56122;SDS011;42426;46.104;19.656;2023-08-30T00:34:46;7.53;;;4.07;;
56122;SDS011;42426;46.104;19.656;2023-08-30T00:37:15;6.25;;;4.15;;
56122;SDS011;42426;46.104;19.656;2023-08-30T00:39:41;5.18;;;4.03;;
56122;SDS011;42426;46.104;19.656;2023-08-30T00:42:07;5.38;;;4.30;;
56122;SDS011;42426;46.104;19.656;2023-08-30T00:44:34;9.13;;;5.13;;
56122;SDS011;42426;46.104;19.656;2023-08-30T00:47:00;5.15;;;4.15;;
56122;SDS011;42426;46.104;19.656;2023-08-30T00:49:27;6.57;;;4.07;;
56122;SDS011;42426;46.104;19.656;2023-08-30T00:51:54;6.38;;;4.30;;
56122;SDS011;42426;46.104;19.656;2023-08-30T00:54:20;5.47;;;4.43;;
56122;SDS011;42426;46.104;19.656;2023-08-30T00:56:46;6.72;;;4.55;;
56122;SDS011;42426;46.104;19.656;2023-08-30T00:59:13;7.78;;;4.60;;
56122;SDS011;42426;46.104;19.656;2023-08-30T01:01:39;5.65;;;4.20;;
56122;SDS011;42426;46.104;19.656;2023-08-30T01:04:06;7.07;;;4.57;;
56122;SDS011;42426;46.104;19.656;2023-08-30T01:06:32;6.35;;;4.18;;
56122;SDS011;42426;46.104;19.656;2023-08-30T01:09:00;5.50;;;4.47;;
56122;SDS011;42426;46.104;19.656;2023-08-30T01:11:31;6.13;;;4.47;;
56122;SDS011;42426;46.104;19.656;2023-08-30T01:14:18;4.65;;;3.97;;
56122;SDS011;42426;46.104;19.656;2023-08-30T01:16:46;7.47;;;4.53;;
56122;SDS011;42426;46.104;19.656;2023-08-30T01:19:26;5.78;;;4.20;;
56122;SDS011;42426;46.104;19.656;2023-08-30T01:24:48;11.18;;;4.65;;
56122;SDS011;42426;46.104;19.656;2023-08-30T01:27:20;6.85;;;4.60;;
56122;SDS011;42426;46.104;19.656;2023-08-30T01:29:46;6.50;;;4.80;;
56122;SDS011;42426;46.104;19.656;2023-08-30T01:32:13;6.45;;;5.15;;
56122;SDS011;42426;46.104;19.656;2023-08-30T01:34:39;5.30;;;4.80;;
56122;SDS011;42426;46.104;19.656;2023-08-30T01:37:06;5.65;;;4.63;;
56122;SDS011;42426;46.104;19.656;2023-08-30T01:39:35;5.13;;;4.35;;
56122;SDS011;42426;46.104;19.656;2023-08-30T01:42:02;5.47;;;4.32;;
56122;SDS011;42426;46.104;19.656;2023-08-30T01:44:29;7.65;;;4.40;;
56122;SDS011;42426;46.104;19.656;2023-08-30T01:46:56;6.50;;;5.15;;
56122;SDS011;42426;46.104;19.656;2023-08-30T01:49:25;5.22;;;4.63;;
56122;SDS011;42426;46.104;19.656;2023-08-30T01:51:52;6.30;;;4.55;;
56122;SDS011;42426;46.104;19.656;2023-08-30T01:54:19;5.85;;;4.72;;
56122;SDS011;42426;46.104;19.656;2023-08-30T01:56:45;6.47;;;4.65;;
56122;SDS011;42426;46.104;19.656;2023-08-30T01:59:12;11.90;;;4.93;;
56122;SDS011;42426;46.104;19.656;2023-08-30T02:01:38;5.15;;;4.53;;
56122;SDS011;42426;46.104;19.656;2023-08-30T02:04:04;6.97;;;5.15;;
56122;SDS011;42426;46.104;19.656;2023-08-30T02:11:35;5.20;;;4.70;;
56122;SDS011;42426;46.104;19.656;2023-08-30T02:14:02;5.57;;;4.85;;
56122;SDS011;42426;46.104;19.656;2023-08-30T02:16:31;7.18;;;4.80;;
56122;SDS011;42426;46.104;19.656;2023-08-30T02:18:58;6.28;;;5.38;;
56122;SDS011;42426;46.104;19.656;2023-08-30T02:21:24;7.22;;;5.18;;
56122;SDS011;42426;46.104;19.656;2023-08-30T02:23:52;6.88;;;4.80;;
56122;SDS011;42426;46.104;19.656;2023-08-30T02:26:19;5.97;;;4.90;;
56122;SDS011;42426;46.104;19.656;2023-08-30T02:28:45;5.90;;;5.07;;
56122;SDS011;42426;46.104;19.656;2023-08-30T02:31:11;6.65;;;4.60;;
56122;SDS011;42426;46.104;19.656;2023-08-30T02:33:37;5.78;;;5.20;;
56122;SDS011;42426;46.104;19.656;2023-08-30T02:36:04;9.77;;;4.70;;
56122;SDS011;42426;46.104;19.656;2023-08-30T02:38:30;11.95;;;5.15;;
56122;SDS011;42426;46.104;19.656;2023-08-30T02:40:56;10.07;;;4.97;;
56122;SDS011;42426;46.104;19.656;2023-08-30T02:43:22;8.00;;;5.03;;
56122;SDS011;42426;46.104;19.656;2023-08-30T02:45:48;6.78;;;5.63;;
56122;SDS011;42426;46.104;19.656;2023-08-30T02:48:14;6.78;;;6.07;;
56122;SDS011;42426;46.104;19.656;2023-08-30T02:50:41;9.52;;;6.15;;
56122;SDS011;42426;46.104;19.656;2023-08-30T02:53:07;8.07;;;6.05;;
56122;SDS011;42426;46.104;19.656;2023-08-30T02:55:33;7.97;;;6.18;;
56122;SDS011;42426;46.104;19.656;2023-08-30T02:57:59;10.15;;;7.05;;
56122;SDS011;42426;46.104;19.656;2023-08-30T03:00:25;8.38;;;6.18;;
56122;SDS011;42426;46.104;19.656;2023-08-30T03:02:52;6.53;;;5.40;;
56122;SDS011;42426;46.104;19.656;2023-08-30T03:05:18;6.40;;;5.20;;
56122;SDS011;42426;46.104;19.656;2023-08-30T03:07:44;7.30;;;5.05;;
56122;SDS011;42426;46.104;19.656;2023-08-30T03:10:11;7.13;;;5.00;;
56122;SDS011;42426;46.104;19.656;2023-08-30T03:12:37;7.45;;;5.93;;
56122;SDS011;42426;46.104;19.656;2023-08-30T03:15:03;9.77;;;6.35;;
56122;SDS011;42426;46.104;19.656;2023-08-30T03:17:30;6.47;;;5.68;;
56122;SDS011;42426;46.104;19.656;2023-08-30T03:19:56;6.35;;;5.20;;
56122;SDS011;42426;46.104;19.656;2023-08-30T03:22:22;13.57;;;5.85;;
56122;SDS011;42426;46.104;19.656;2023-08-30T03:24:48;7.72;;;5.25;;
56122;SDS011;42426;46.104;19.656;2023-08-30T03:27:15;7.93;;;5.43;;
56122;SDS011;42426;46.104;19.656;2023-08-30T03:29:41;5.03;;;4.53;;
56122;SDS011;42426;46.104;19.656;2023-08-30T03:32:07;6.10;;;4.85;;
56122;SDS011;42426;46.104;19.656;2023-08-30T03:34:34;17.70;;;6.65;;
56122;SDS011;42426;46.104;19.656;2023-08-30T03:37:00;7.38;;;5.70;;
56122;SDS011;42426;46.104;19.656;2023-08-30T03:39:26;6.55;;;4.80;;
56122;SDS011;42426;46.104;19.656;2023-08-30T03:41:52;7.97;;;5.28;;
56122;SDS011;42426;46.104;19.656;2023-08-30T03:44:18;17.23;;;6.75;;
56122;SDS011;42426;46.104;19.656;2023-08-30T03:46:44;9.93;;;5.70;;
56122;SDS011;42426;46.104;19.656;2023-08-30T03:49:10;6.60;;;5.10;;
56122;SDS011;42426;46.104;19.656;2023-08-30T03:51:36;8.60;;;5.18;;
56122;SDS011;42426;46.104;19.656;2023-08-30T03:54:02;7.80;;;4.85;;
56122;SDS011;42426;46.104;19.656;2023-08-30T03:56:28;8.50;;;5.28;;
56122;SDS011;42426;46.104;19.656;2023-08-30T03:58:54;5.13;;;4.28;;
56122;SDS011;42426;46.104;19.656;2023-08-30T04:01:20;7.35;;;4.60;;
56122;SDS011;42426;46.104;19.656;2023-08-30T04:03:46;10.50;;;5.70;;
56122;SDS011;42426;46.104;19.656;2023-08-30T04:06:12;9.40;;;5.70;;
56122;SDS011;42426;46.104;19.656;2023-08-30T04:08:38;6.60;;;4.93;;
56122;SDS011;42426;46.104;19.656;2023-08-30T04:11:04;7.65;;;5.15;;
56122;SDS011;42426;46.104;19.656;2023-08-30T04:13:31;10.80;;;5.70;;
56122;SDS011;42426;46.104;19.656;2023-08-30T04:15:57;8.40;;;5.47;;
56122;SDS011;42426;46.104;19.656;2023-08-30T04:18:23;8.20;;;4.82;;
56122;SDS011;42426;46.104;19.656;2023-08-30T04:20:49;6.20;;;5.43;;
56122;SDS011;42426;46.104;19.656;2023-08-30T04:23:15;6.55;;;5.57;;
56122;SDS011;42426;46.104;19.656;2023-08-30T04:25:42;6.32;;;5.25;;
56122;SDS011;42426;46.104;19.656;2023-08-30T04:28:08;6.55;;;5.22;;
56122;SDS011;42426;46.104;19.656;2023-08-30T04:30:35;10.30;;;4.93;;
56122;SDS011;42426;46.104;19.656;2023-08-30T04:33:02;9.80;;;5.88;;
56122;SDS011;42426;46.104;19.656;2023-08-30T04:35:29;9.55;;;5.55;;
56122;SDS011;42426;46.104;19.656;2023-08-30T04:37:55;6.00;;;5.40;;
56122;SDS011;42426;46.104;19.656;2023-08-30T04:40:21;7.18;;;5.22;;
56122;SDS011;42426;46.104;19.656;2023-08-30T04:42:47;6.38;;;5.28;;
56122;SDS011;42426;46.104;19.656;2023-08-30T04:45:13;5.78;;;4.85;;
56122;SDS011;42426;46.104;19.656;2023-08-30T04:47:39;5.63;;;4.90;;
56122;SDS011;42426;46.104;19.656;2023-08-30T04:50:08;5.70;;;4.53;;
56122;SDS011;42426;46.104;19.656;2023-08-30T04:52:34;6.05;;;4.88;;
56122;SDS011;42426;46.104;19.656;2023-08-30T04:55:00;6.68;;;4.22;;
56122;SDS011;42426;46.104;19.656;2023-08-30T04:57:26;4.85;;;4.35;;
56122;SDS011;42426;46.104;19.656;2023-08-30T04:59:52;8.23;;;5.10;;
56122;SDS011;42426;46.104;19.656;2023-08-30T05:02:18;5.43;;;4.60;;
56122;SDS011;42426;46.104;19.656;2023-08-30T05:04:44;6.10;;;5.22;;
56122;SDS011;42426;46.104;19.656;2023-08-30T05:07:10;5.50;;;4.80;;
56122;SDS011;42426;46.104;19.656;2023-08-30T05:09:36;7.13;;;5.63;;
56122;SDS011;42426;46.104;19.656;2023-08-30T05:12:05;8.98;;;7.53;;
56122;SDS011;42426;46.104;19.656;2023-08-30T05:14:31;6.82;;;6.05;;
56122;SDS011;42426;46.104;19.656;2023-08-30T05:16:57;8.95;;;6.80;;
56122;SDS011;42426;46.104;19.656;2023-08-30T05:21:49;6.90;;;6.20;;
56122;SDS011;42426;46.104;19.656;2023-08-30T05:24:20;7.75;;;6.60;;
56122;SDS011;42426;46.104;19.656;2023-08-30T05:26:46;8.70;;;7.80;;
56122;SDS011;42426;46.104;19.656;2023-08-30T05:29:13;8.65;;;7.40;;
56122;SDS011;42426;46.104;19.656;2023-08-30T05:31:40;9.18;;;6.65;;
56122;SDS011;42426;46.104;19.656;2023-08-30T05:34:06;13.73;;;10.85;;
56122;SDS011;42426;46.104;19.656;2023-08-30T05:36:33;9.73;;;8.43;;
56122;SDS011;42426;46.104;19.656;2023-08-30T05:38:59;12.73;;;10.20;;
56122;SDS011;42426;46.104;19.656;2023-08-30T05:41:25;12.90;;;9.52;;
56122;SDS011;42426;46.104;19.656;2023-08-30T05:43:51;12.43;;;10.25;;
56122;SDS011;42426;46.104;19.656;2023-08-30T05:46:17;11.02;;;9.48;;
56122;SDS011;42426;46.104;19.656;2023-08-30T05:48:44;11.32;;;9.40;;
56122;SDS011;42426;46.104;19.656;2023-08-30T05:51:10;12.43;;;10.18;;
56122;SDS011;42426;46.104;19.656;2023-08-30T05:53:36;15.13;;;11.57;;
56122;SDS011;42426;46.104;19.656;2023-08-30T05:56:03;13.60;;;9.95;;
